createdAt,value
2023-04-21T00:00:41.953Z,1003.3
2023-04-21T00:16:05.249Z,1003.2
2023-04-21T00:31:28.555Z,1003.1
2023-04-21T00:46:50.861Z,1003
2023-04-21T01:02:14.178Z,1002.8
2023-04-21T01:17:37.478Z,1002.8
2023-04-21T01:33:00.776Z,1002.7
2023-04-21T01:48:24.076Z,1002.7
2023-04-21T02:03:47.394Z,1002.7
2023-04-21T02:19:10.691Z,1002.8
2023-04-21T02:34:33.021Z,1002.8
2023-04-21T02:49:55.333Z,1002.7
2023-04-21T03:05:17.667Z,1002.7
2023-04-21T03:20:39.980Z,1002.6
2023-04-21T03:36:03.238Z,1002.7
2023-04-21T03:51:26.497Z,1002.8
2023-04-21T04:06:49.758Z,1002.8
2023-04-21T04:22:13.031Z,1002.9
2023-04-21T04:37:36.288Z,1002.9
2023-04-21T04:52:59.546Z,1002.9
2023-04-21T05:08:22.803Z,1002.9
2023-04-21T05:23:46.067Z,1003
2023-04-21T05:39:09.334Z,1002.9
2023-04-21T05:54:32.586Z,1002.9
2023-04-21T06:09:55.851Z,1002.9
2023-04-21T06:25:19.115Z,1002.8
2023-04-21T06:40:41.378Z,1002.7
2023-04-21T06:56:04.642Z,1002.7
2023-04-21T07:11:27.885Z,1002.6
2023-04-21T07:26:51.000Z,1002.5
2023-04-21T07:42:14.420Z,1002.3
2023-04-21T07:57:37.671Z,1002.3
2023-04-21T08:13:00.917Z,1002.2
2023-04-21T08:28:23.207Z,1002.2
2023-04-21T08:29:45.635Z,1002.1
2023-04-21T08:31:08.064Z,1002.1
2023-04-21T08:32:30.498Z,1002.1
2023-04-21T08:33:53.906Z,1002
2023-04-21T08:35:17.312Z,1002
2023-04-21T08:36:40.719Z,1002.1
2023-04-21T08:38:04.119Z,1002
2023-04-21T08:39:27.525Z,1002
2023-04-21T08:40:50.934Z,1002
2023-04-21T08:42:14.354Z,1002.1
2023-04-21T08:43:37.754Z,1002.1
2023-04-21T08:45:01.163Z,1002.1
2023-04-21T08:46:24.567Z,1001.9
2023-04-21T08:47:47.977Z,1002.1
2023-04-21T08:49:11.386Z,1002
2023-04-21T08:50:33.808Z,1002
2023-04-21T08:51:57.226Z,1002
2023-04-21T08:53:20.630Z,1002
2023-04-21T08:54:44.027Z,1002
2023-04-21T08:56:07.459Z,1002.1
2023-04-21T08:57:30.861Z,1002
2023-04-21T08:58:54.270Z,1002
2023-04-21T09:00:16.701Z,1002
2023-04-21T09:01:39.128Z,1002
2023-04-21T09:03:02.537Z,1002
2023-04-21T09:04:25.938Z,1002
2023-04-21T09:05:49.355Z,1002
2023-04-21T09:07:12.750Z,1002
2023-04-21T09:08:36.161Z,1002
2023-04-21T09:09:59.567Z,1002
2023-04-21T09:11:22.972Z,1002
2023-04-21T09:12:46.396Z,1002
2023-04-21T09:14:09.802Z,1002
2023-04-21T09:15:33.213Z,1002
2023-04-21T09:16:56.612Z,1001.9
2023-04-21T09:18:20.021Z,1002
2023-04-21T09:19:42.446Z,1001.9
2023-04-21T09:21:05.859Z,1001.9
2023-04-21T09:22:29.254Z,1001.9
2023-04-21T09:23:52.676Z,1001.9
2023-04-21T09:25:16.071Z,1001.9
2023-04-21T09:26:39.486Z,1001.9
2023-04-21T09:28:02.898Z,1001.9
2023-04-21T09:29:25.325Z,1001.9
2023-04-21T09:30:47.755Z,1001.9
2023-04-21T09:32:11.165Z,1001.8
2023-04-21T09:33:34.576Z,1001.9
2023-04-21T09:34:57.970Z,1001.9
2023-04-21T09:36:21.379Z,1002
2023-04-21T09:37:44.806Z,1002
2023-04-21T09:39:08.200Z,1001.9
2023-04-21T09:40:31.622Z,1001.8
2023-04-21T09:41:55.031Z,1001.8
2023-04-21T09:43:18.426Z,1001.8
2023-04-21T09:44:41.853Z,1001.8
2023-04-21T09:46:05.250Z,1001.8
2023-04-21T09:47:28.671Z,1001.7
2023-04-21T09:48:51.088Z,1001.7
2023-04-21T09:50:14.506Z,1001.7
2023-04-21T09:51:37.905Z,1001.7
2023-04-21T09:53:01.322Z,1001.7
2023-04-21T09:54:24.726Z,1001.7
2023-04-21T09:55:48.147Z,1001.7
2023-04-21T09:57:11.540Z,1001.7
2023-04-21T09:58:33.985Z,1001.6
2023-04-21T09:59:56.401Z,1001.6
2023-04-21T10:02:43.222Z,1001.6
2023-04-21T10:04:06.621Z,1001.7
2023-04-21T10:05:30.022Z,1001.7
2023-04-21T10:06:53.431Z,1001.7
2023-04-21T10:08:16.846Z,1001.7
2023-04-21T10:09:40.267Z,1001.7
2023-04-21T10:11:03.672Z,1001.6
2023-04-21T10:12:27.076Z,1001.6
2023-04-21T10:13:50.481Z,1001.5
2023-04-21T10:15:13.893Z,1001.6
2023-04-21T10:16:37.283Z,1001.6
2023-04-21T10:17:59.723Z,1001.5
2023-04-21T10:19:23.133Z,1001.6
2023-04-21T10:20:46.535Z,1001.5
2023-04-21T10:22:09.933Z,1001.6
2023-04-21T10:23:33.337Z,1001.5
2023-04-21T10:24:56.762Z,1001.5
2023-04-21T10:26:20.176Z,1001.5
2023-04-21T10:27:43.575Z,1001.4
2023-04-21T10:29:06.991Z,1001.4
2023-04-21T10:30:30.392Z,1001.4
2023-04-21T10:31:53.813Z,1001.5
2023-04-21T10:33:17.202Z,1001.4
2023-04-21T10:34:40.627Z,1001.3
2023-04-21T10:36:03.047Z,1001.3
2023-04-21T10:37:26.446Z,1001.3
2023-04-21T10:38:49.851Z,1001.2
2023-04-21T10:40:13.265Z,1001.3
2023-04-21T10:41:36.672Z,1001.1
2023-04-21T10:43:00.084Z,1001.2
2023-04-21T10:44:23.495Z,1001.2
2023-04-21T10:45:46.919Z,1001.2
2023-04-21T10:47:10.309Z,1001.1
2023-04-21T10:48:33.735Z,1001.1
2023-04-21T10:49:57.126Z,1001.1
2023-04-21T10:51:20.549Z,1001.1
2023-04-21T10:52:43.956Z,1001.1
2023-04-21T10:54:06.373Z,1001.1
2023-04-21T10:55:29.787Z,1001.1
2023-04-21T10:56:53.199Z,1001.1
2023-04-21T10:58:16.597Z,1001
2023-04-21T10:59:40.012Z,1001
2023-04-21T11:01:03.000Z,1001
2023-04-21T11:02:26.819Z,1001
2023-04-21T11:03:50.242Z,1001.1
2023-04-21T11:05:13.648Z,1001
2023-04-21T11:06:37.059Z,1001.1
2023-04-21T11:08:00.469Z,1001
2023-04-21T11:09:23.871Z,1001.1
2023-04-21T11:10:47.282Z,1001.1
2023-04-21T11:12:09.712Z,1001.1
2023-04-21T11:13:33.112Z,1001
2023-04-21T11:14:56.511Z,1001
2023-04-21T11:16:19.916Z,1001
2023-04-21T11:17:43.338Z,1001
2023-04-21T11:19:06.734Z,1000.9
2023-04-21T11:20:29.165Z,1001
2023-04-21T11:21:52.574Z,1000.9
2023-04-21T11:23:15.991Z,1000.9
2023-04-21T11:24:39.396Z,1001
2023-04-21T11:26:02.804Z,1000.9
2023-04-21T11:27:26.222Z,1001
2023-04-21T11:28:49.636Z,1000.9
2023-04-21T11:30:13.050Z,1000.9
2023-04-21T11:31:36.452Z,1000.8
2023-04-21T11:32:59.869Z,1000.9
2023-04-21T11:34:23.274Z,1000.9
2023-04-21T11:35:46.670Z,1000.9
2023-04-21T11:37:10.091Z,1000.8
2023-04-21T11:38:32.520Z,1000.9
2023-04-21T11:39:55.928Z,1000.8
2023-04-21T11:41:19.334Z,1000.8
2023-04-21T11:42:42.729Z,1000.8
2023-04-21T11:44:06.154Z,1000.8
2023-04-21T11:45:29.565Z,1000.8
2023-04-21T11:46:52.973Z,1000.7
2023-04-21T11:48:16.365Z,1000.6
2023-04-21T11:49:39.790Z,1000.7
2023-04-21T11:51:03.183Z,1000.7
2023-04-21T11:52:26.600Z,1000.6
2023-04-21T11:53:50.013Z,1000.7
2023-04-21T11:55:13.420Z,1000.7
2023-04-21T11:56:35.843Z,1000.7
2023-04-21T11:57:59.249Z,1000.6
2023-04-21T11:59:22.652Z,1000.6
2023-04-21T12:00:46.069Z,1000.6
2023-04-21T12:02:09.469Z,1000.6
2023-04-21T12:03:32.879Z,1000.6
2023-04-21T12:04:56.285Z,1000.5
2023-04-21T12:06:19.694Z,1000.5
2023-04-21T12:07:43.112Z,1000.5
2023-04-21T12:09:06.520Z,1000.6
2023-04-21T12:10:29.926Z,1000.5
2023-04-21T12:11:53.336Z,1000.6
2023-04-21T12:13:16.734Z,1000.6
2023-04-21T12:14:39.175Z,1000.5
2023-04-21T12:16:02.582Z,1000.5
2023-04-21T12:17:25.987Z,1000.5
2023-04-21T12:18:49.400Z,1000.5
2023-04-21T12:20:12.803Z,1000.6
2023-04-21T12:21:36.218Z,1000.4
2023-04-21T12:22:59.612Z,1000.4
2023-04-21T12:24:23.038Z,1000.4
2023-04-21T12:25:46.452Z,1000.4
2023-04-21T12:27:09.858Z,1000.4
2023-04-21T12:28:33.261Z,1000.4
2023-04-21T12:29:56.679Z,1000.3
2023-04-21T12:31:20.096Z,1000.3
2023-04-21T12:32:42.521Z,1000.3
2023-04-21T12:34:05.923Z,1000.3
2023-04-21T12:35:29.324Z,1000.3
2023-04-21T12:36:52.744Z,1000.3
2023-04-21T12:38:16.152Z,1000.3
2023-04-21T12:39:39.549Z,1000.3
2023-04-21T12:41:02.973Z,1000.2
2023-04-21T12:42:26.369Z,1000.3
2023-04-21T12:43:49.782Z,1000.2
2023-04-21T12:45:13.187Z,1000.2
2023-04-21T12:46:36.592Z,1000.2
2023-04-21T12:47:59.998Z,1000.2
2023-04-21T12:49:23.412Z,1000.2
2023-04-21T12:50:45.846Z,1000.2
2023-04-21T12:52:09.259Z,1000.2
2023-04-21T12:53:32.679Z,1000.2
2023-04-21T12:54:56.078Z,1000.2
2023-04-21T12:56:19.479Z,1000.1
2023-04-21T12:57:42.905Z,1000.2
2023-04-21T12:59:06.308Z,1000.2
2023-04-21T13:00:29.711Z,1000.1
2023-04-21T13:01:53.119Z,1000.1
2023-04-21T13:03:16.529Z,1000.2
2023-04-21T13:04:39.950Z,1000.1
2023-04-21T13:06:03.347Z,1000.1
2023-04-21T13:07:26.757Z,1000.1
2023-04-21T13:08:49.182Z,1000.2
2023-04-21T13:10:12.592Z,1000.1
2023-04-21T13:11:35.999Z,1000.2
2023-04-21T13:12:59.421Z,1000.1
2023-04-21T13:14:22.840Z,1000.1
2023-04-21T13:15:46.247Z,1000.2
2023-04-21T13:17:09.648Z,1000.1
2023-04-21T13:18:33.059Z,1000.1
2023-04-21T13:19:56.469Z,1000
2023-04-21T13:21:19.868Z,1000.1
2023-04-21T13:22:43.290Z,1000
2023-04-21T13:24:06.688Z,1000
2023-04-21T13:25:30.105Z,1000
2023-04-21T13:26:52.532Z,1000.1
2023-04-21T13:28:15.945Z,1000
2023-04-21T13:29:39.351Z,999.9
2023-04-21T13:31:02.767Z,999.9
2023-04-21T13:32:26.170Z,999.9
2023-04-21T13:33:49.569Z,999.9
2023-04-21T13:35:12.986Z,999.9
2023-04-21T13:36:36.393Z,1000
2023-04-21T13:37:59.797Z,999.9
2023-04-21T13:39:23.204Z,999.8
2023-04-21T13:40:46.614Z,999.8
2023-04-21T13:42:10.019Z,999.7
2023-04-21T13:43:33.425Z,999.7
2023-04-21T13:44:55.866Z,999.8
2023-04-21T13:46:19.269Z,999.8
2023-04-21T13:47:42.674Z,999.8
2023-04-21T13:49:06.087Z,999.8
2023-04-21T13:50:29.481Z,999.8
2023-04-21T13:51:52.897Z,999.8
2023-04-21T13:53:16.303Z,999.7
2023-04-21T13:54:39.722Z,999.6
2023-04-21T13:56:03.118Z,999.7
2023-04-21T13:57:26.000Z,999.6
2023-04-21T13:58:49.948Z,999.6
2023-04-21T14:00:13.362Z,999.6
2023-04-21T14:01:36.769Z,999.5
2023-04-21T14:02:59.192Z,999.6
2023-04-21T14:04:22.601Z,999.5
2023-04-21T14:05:46.009Z,999.5
2023-04-21T14:07:09.419Z,999.5
2023-04-21T14:08:32.835Z,999.5
2023-04-21T14:11:19.654Z,999.5
2023-04-21T14:12:43.047Z,999.4
2023-04-21T14:14:06.460Z,999.4
2023-04-21T14:15:29.878Z,999.4
2023-04-21T14:16:53.277Z,999.4
2023-04-21T14:18:16.694Z,999.4
2023-04-21T14:19:40.000Z,999.4
2023-04-21T14:21:02.515Z,999.3
2023-04-21T14:22:25.929Z,999.4
2023-04-21T14:23:49.330Z,999.3
2023-04-21T14:25:12.756Z,999.3
2023-04-21T14:26:36.149Z,999.3
2023-04-21T14:27:59.560Z,999.2
2023-04-21T14:29:22.972Z,999.2
2023-04-21T14:30:46.386Z,999.2
2023-04-21T14:32:09.792Z,999.2
2023-04-21T14:33:33.200Z,999.2
2023-04-21T14:34:56.615Z,999.2
2023-04-21T14:36:20.023Z,999.2
2023-04-21T14:37:43.429Z,999.2
2023-04-21T14:39:05.849Z,999.2
2023-04-21T14:40:29.273Z,999.2
2023-04-21T14:41:52.681Z,999.1
2023-04-21T14:43:16.077Z,999.1
2023-04-21T14:44:39.492Z,999.1
2023-04-21T14:46:02.908Z,999
2023-04-21T14:47:26.313Z,999
2023-04-21T14:48:49.729Z,999
2023-04-21T14:50:13.122Z,999.1
2023-04-21T14:51:36.536Z,999
2023-04-21T14:52:59.953Z,999
2023-04-21T14:54:23.368Z,999
2023-04-21T14:55:46.765Z,999
2023-04-21T14:57:09.186Z,999
2023-04-21T14:58:32.606Z,999
2023-04-21T14:59:56.010Z,999
2023-04-21T15:01:19.412Z,999
2023-04-21T15:02:42.825Z,999
2023-04-21T15:04:06.224Z,999
2023-04-21T15:05:29.639Z,999
2023-04-21T15:06:53.057Z,999
2023-04-21T15:08:16.455Z,999
2023-04-21T15:09:39.873Z,999.1
2023-04-21T15:11:03.283Z,999
2023-04-21T15:12:26.677Z,999
2023-04-21T15:13:50.085Z,998.9
2023-04-21T15:15:12.507Z,998.9
2023-04-21T15:16:35.931Z,998.9
2023-04-21T15:17:59.327Z,998.8
2023-04-21T15:19:22.735Z,998.9
2023-04-21T15:20:46.146Z,998.8
2023-04-21T15:22:09.554Z,998.9
2023-04-21T15:23:32.968Z,998.9
2023-04-21T15:24:56.377Z,998.8
2023-04-21T15:26:19.787Z,998.9
2023-04-21T15:27:43.201Z,998.8
2023-04-21T15:29:06.608Z,998.9
2023-04-21T15:30:30.005Z,998.9
2023-04-21T15:31:53.428Z,998.8
2023-04-21T15:33:15.848Z,998.9
2023-04-21T15:34:39.255Z,998.8
2023-04-21T15:36:02.667Z,998.8
2023-04-21T15:37:26.073Z,998.8
2023-04-21T15:38:49.487Z,998.8
2023-04-21T15:40:12.880Z,998.8
2023-04-21T15:41:36.305Z,998.8
2023-04-21T15:42:59.710Z,998.9
2023-04-21T15:44:23.111Z,998.8
2023-04-21T15:45:46.531Z,998.8
2023-04-21T15:47:09.924Z,998.9
2023-04-21T15:48:33.335Z,998.8
2023-04-21T15:49:56.752Z,998.8
2023-04-21T15:51:19.163Z,998.8
2023-04-21T15:52:42.593Z,998.7
2023-04-21T15:54:06.002Z,998.8
2023-04-21T15:55:29.416Z,998.7
2023-04-21T15:56:52.828Z,998.7
2023-04-21T15:58:16.222Z,998.7
2023-04-21T15:59:38.664Z,998.7
2023-04-21T16:01:02.056Z,998.7
2023-04-21T16:02:25.463Z,998.6
2023-04-21T16:03:48.884Z,998.7
2023-04-21T16:05:12.290Z,998.8
2023-04-21T16:06:35.708Z,998.7
2023-04-21T16:07:59.126Z,998.7
2023-04-21T16:09:22.531Z,998.7
2023-04-21T16:10:45.936Z,998.7
2023-04-21T16:12:09.334Z,998.7
2023-04-21T16:13:32.753Z,998.7
2023-04-21T16:14:56.169Z,998.6
2023-04-21T16:16:19.572Z,998.6
2023-04-21T16:17:42.003Z,998.7
2023-04-21T16:19:05.417Z,998.6
2023-04-21T16:20:28.830Z,998.6
2023-04-21T16:21:52.225Z,998.7
2023-04-21T16:23:15.631Z,998.6
2023-04-21T16:24:39.043Z,998.6
2023-04-21T16:26:02.465Z,998.6
2023-04-21T16:27:25.857Z,998.6
2023-04-21T16:28:49.263Z,998.6
2023-04-21T16:30:12.684Z,998.6
2023-04-21T16:31:36.099Z,998.6
2023-04-21T16:32:59.519Z,998.6
2023-04-21T16:34:22.923Z,998.6
2023-04-21T16:35:45.349Z,998.6
2023-04-21T16:37:08.760Z,998.6
2023-04-21T16:38:32.165Z,998.6
2023-04-21T16:39:55.561Z,998.6
2023-04-21T16:41:18.990Z,998.6
2023-04-21T16:42:42.395Z,998.5
2023-04-21T16:44:05.796Z,998.6
2023-04-21T16:45:29.211Z,998.5
2023-04-21T16:46:52.622Z,998.6
2023-04-21T16:48:16.017Z,998.6
2023-04-21T16:49:39.422Z,998.6
2023-04-21T16:51:02.856Z,998.6
2023-04-21T16:52:26.245Z,998.6
2023-04-21T16:53:48.684Z,998.5
2023-04-21T16:55:12.076Z,998.5
2023-04-21T16:56:35.499Z,998.5
2023-04-21T16:57:58.903Z,998.6
2023-04-21T16:59:22.320Z,998.5
2023-04-21T17:00:45.729Z,998.5
2023-04-21T17:02:09.121Z,998.5
2023-04-21T17:03:32.531Z,998.5
2023-04-21T17:04:55.945Z,998.5
2023-04-21T17:06:19.358Z,998.5
2023-04-21T17:07:42.770Z,998.6
2023-04-21T17:09:06.184Z,998.6
2023-04-21T17:10:29.582Z,998.5
2023-04-21T17:11:51.998Z,998.6
2023-04-21T17:14:38.816Z,998.6
2023-04-21T17:16:02.226Z,998.6
2023-04-21T17:17:25.644Z,998.5
2023-04-21T17:18:49.058Z,998.6
2023-04-21T17:20:12.469Z,998.6
2023-04-21T17:21:35.864Z,998.6
2023-04-21T17:22:59.267Z,998.5
2023-04-21T17:24:22.686Z,998.5
2023-04-21T17:25:46.103Z,998.5
2023-04-21T17:27:09.507Z,998.5
2023-04-21T17:28:32.905Z,998.5
2023-04-21T17:29:55.324Z,998.5
2023-04-21T17:31:18.743Z,998.5
2023-04-21T17:32:42.156Z,998.5
2023-04-21T17:34:05.552Z,998.5
2023-04-21T17:35:28.976Z,998.5
2023-04-21T17:36:52.379Z,998.5
2023-04-21T17:38:15.785Z,998.4
2023-04-21T17:39:39.201Z,998.5
2023-04-21T17:41:02.599Z,998.5
2023-04-21T17:42:26.020Z,998.5
2023-04-21T17:43:49.420Z,998.5
2023-04-21T17:45:12.834Z,998.5
2023-04-21T17:46:36.248Z,998.5
2023-04-21T17:47:58.653Z,998.5
2023-04-21T17:49:22.072Z,998.5
2023-04-21T17:50:45.486Z,998.5
2023-04-21T17:52:08.892Z,998.5
2023-04-21T17:53:32.302Z,998.5
2023-04-21T17:54:55.699Z,998.6
2023-04-21T17:56:19.121Z,998.5
2023-04-21T17:57:42.529Z,998.6
2023-04-21T17:59:05.937Z,998.6
2023-04-21T18:00:29.335Z,998.5
2023-04-21T18:01:52.000Z,998.5
2023-04-21T18:03:16.153Z,998.6
2023-04-21T18:04:39.560Z,998.6
2023-04-21T18:06:01.986Z,998.7
2023-04-21T18:07:25.404Z,998.6
2023-04-21T18:08:48.801Z,998.6
2023-04-21T18:10:12.230Z,998.6
2023-04-21T18:11:35.634Z,998.6
2023-04-21T18:12:59.037Z,998.6
2023-04-21T18:14:22.443Z,998.6
2023-04-21T18:15:45.849Z,998.6
2023-04-21T18:17:09.256Z,998.6
2023-04-21T18:18:32.656Z,998.7
2023-04-21T18:19:56.070Z,998.7
2023-04-21T18:21:19.474Z,998.7
2023-04-21T18:22:42.889Z,998.7
2023-04-21T18:24:05.319Z,998.7
2023-04-21T18:25:28.724Z,998.7
2023-04-21T18:26:52.142Z,998.7
2023-04-21T18:28:15.536Z,998.7
2023-04-21T18:29:38.955Z,998.7
2023-04-21T18:31:02.361Z,998.7
2023-04-21T18:32:25.764Z,998.7
2023-04-21T18:33:49.178Z,998.7
2023-04-21T18:35:12.577Z,998.7
2023-04-21T18:36:35.983Z,998.7
2023-04-21T18:37:59.399Z,998.7
2023-04-21T18:39:22.799Z,998.7
2023-04-21T18:40:46.208Z,998.7
2023-04-21T18:42:08.676Z,998.7
2023-04-21T18:43:32.074Z,998.7
2023-04-21T18:44:55.501Z,998.8
2023-04-21T18:46:18.907Z,998.7
2023-04-21T18:47:42.357Z,998.7
2023-04-21T18:49:05.797Z,998.8
2023-04-21T18:50:29.251Z,998.8
2023-04-21T18:51:52.698Z,998.8
2023-04-21T18:53:16.154Z,998.8
2023-04-21T18:54:39.600Z,998.8
2023-04-21T18:56:03.058Z,998.8
2023-04-21T18:57:26.517Z,998.8
2023-04-21T18:58:49.957Z,998.8
2023-04-21T19:00:12.426Z,998.8
2023-04-21T19:01:35.868Z,998.8
2023-04-21T19:02:59.328Z,998.7
2023-04-21T19:04:22.775Z,998.7
2023-04-21T19:05:46.227Z,998.7
2023-04-21T19:07:09.690Z,998.7
2023-04-21T19:08:33.142Z,998.8
2023-04-21T19:09:56.587Z,998.8
2023-04-21T19:11:20.038Z,998.8
2023-04-21T19:12:43.486Z,998.7
2023-04-21T19:14:06.927Z,998.8
2023-04-21T19:15:30.374Z,998.8
2023-04-21T19:16:53.842Z,998.8
2023-04-21T19:18:16.310Z,998.8
2023-04-21T19:19:39.748Z,998.8
2023-04-21T19:21:03.216Z,998.8
2023-04-21T19:22:26.656Z,998.9
2023-04-21T19:23:50.112Z,998.8
2023-04-21T19:25:13.561Z,998.8
2023-04-21T19:26:37.023Z,998.8
2023-04-21T19:28:00.461Z,998.8
2023-04-21T19:29:23.922Z,998.8
2023-04-21T19:30:47.361Z,998.8
2023-04-21T19:32:10.819Z,998.8
2023-04-21T19:33:34.265Z,998.8
2023-04-21T19:34:57.717Z,998.8
2023-04-21T19:36:20.179Z,998.8
2023-04-21T19:37:43.636Z,998.8
2023-04-21T19:39:07.079Z,998.8
2023-04-21T19:40:30.532Z,998.8
2023-04-21T19:41:53.983Z,998.8
2023-04-21T19:43:17.443Z,998.8
2023-04-21T19:44:40.893Z,998.8
2023-04-21T19:46:04.339Z,998.8
2023-04-21T19:47:27.803Z,998.8
2023-04-21T19:48:51.239Z,998.8
2023-04-21T19:50:14.701Z,998.8
2023-04-21T19:51:38.146Z,998.8
2023-04-21T19:53:01.599Z,998.8
2023-04-21T19:54:24.052Z,998.8
2023-04-21T19:55:47.504Z,998.8
2023-04-21T19:57:10.950Z,998.8
2023-04-21T19:58:34.408Z,998.8
2023-04-21T19:59:57.857Z,998.8
2023-04-21T20:01:21.311Z,998.8
2023-04-21T20:02:44.754Z,998.8
2023-04-21T20:04:08.203Z,998.8
2023-04-21T20:05:31.657Z,998.7
2023-04-21T20:06:55.104Z,998.8
2023-04-21T20:08:18.561Z,998.8
2023-04-21T20:09:41.996Z,998.8
2023-04-21T20:11:05.453Z,998.8
2023-04-21T20:12:27.933Z,998.8
2023-04-21T20:13:51.381Z,998.9
2023-04-21T20:15:14.830Z,998.9
2023-04-21T20:16:38.287Z,998.9
2023-04-21T20:18:01.729Z,998.9
2023-04-21T20:19:25.185Z,998.8
2023-04-21T20:20:48.625Z,998.9
2023-04-21T20:22:12.072Z,998.9
2023-04-21T20:23:35.534Z,998.9
2023-04-21T20:24:58.963Z,998.8
2023-04-21T20:26:22.427Z,998.8
2023-04-21T20:27:45.866Z,998.9
2023-04-21T20:29:09.310Z,998.9
2023-04-21T20:31:55.240Z,998.9
2023-04-21T20:33:18.676Z,998.9
2023-04-21T20:36:05.576Z,998.9
2023-04-21T20:37:29.032Z,998.9
2023-04-21T20:38:51.493Z,998.9
2023-04-21T20:40:14.957Z,998.9
2023-04-21T20:41:38.400Z,998.9
2023-04-21T20:43:01.847Z,998.9
2023-04-21T20:44:25.307Z,998.9
2023-04-21T20:45:48.752Z,998.9
2023-04-21T20:47:12.195Z,998.9
2023-04-21T20:48:35.650Z,998.9
2023-04-21T20:49:59.099Z,998.9
2023-04-21T20:51:22.558Z,998.9
2023-04-21T20:52:46.006Z,998.9
2023-04-21T20:54:09.456Z,999
2023-04-21T20:55:32.901Z,998.9
2023-04-21T20:56:55.371Z,998.9
2023-04-21T20:58:18.835Z,998.9
2023-04-21T20:59:42.286Z,999
2023-04-21T21:01:05.734Z,999
2023-04-21T21:02:29.177Z,999
2023-04-21T21:03:52.620Z,999
2023-04-21T21:05:16.069Z,999
2023-04-21T21:06:39.529Z,999.1
2023-04-21T21:08:02.975Z,999.1
2023-04-21T21:09:26.411Z,999.1
2023-04-21T21:10:49.879Z,999
2023-04-21T21:12:13.330Z,999.1
2023-04-21T21:13:36.767Z,999.1
2023-04-21T21:14:59.237Z,999.1
2023-04-21T21:16:22.703Z,999.1
2023-04-21T21:17:46.136Z,999.2
2023-04-21T21:19:09.597Z,999.2
2023-04-21T21:20:33.052Z,999.1
2023-04-21T21:21:56.483Z,999.1
2023-04-21T21:23:19.948Z,999.1
2023-04-21T21:24:43.381Z,999.2
2023-04-21T21:26:06.831Z,999.2
2023-04-21T21:27:30.288Z,999.2
2023-04-21T21:28:53.000Z,999.1
2023-04-21T21:30:17.201Z,999.2
2023-04-21T21:31:40.635Z,999.2
2023-04-21T21:33:03.106Z,999.2
2023-04-21T21:34:26.549Z,999.2
2023-04-21T21:35:50.012Z,999.2
2023-04-21T21:51:13.307Z,999.2
2023-04-21T22:06:36.602Z,999.4
2023-04-21T22:21:59.876Z,999.4
2023-04-21T22:37:23.161Z,999.4
2023-04-21T22:52:46.475Z,999.5
2023-04-21T23:08:09.762Z,999.5
2023-04-21T23:23:33.067Z,999.4
2023-04-21T23:38:56.359Z,999.4
2023-04-21T23:54:19.649Z,999.3
